createdAt,value
2023-04-14T00:00:08.070Z,8.52
2023-04-14T00:03:22.047Z,6.82
2023-04-14T00:06:28.202Z,11.30
2023-04-14T00:12:37.005Z,8.15
2023-04-14T00:15:43.157Z,7.20
2023-04-14T00:18:47.071Z,7.57
2023-04-14T00:21:51.821Z,11.30
2023-04-14T00:24:56.110Z,9.27
2023-04-14T00:28:00.353Z,6.70
2023-04-14T00:31:04.480Z,8.02
2023-04-14T00:34:08.622Z,6.85
2023-04-14T00:37:13.099Z,6.38
2023-04-14T00:40:17.656Z,10.32
2023-04-14T00:43:22.179Z,6.03
2023-04-14T00:46:26.758Z,6.68
2023-04-14T00:49:31.204Z,6.38
2023-04-14T00:52:35.658Z,6.97
2023-04-14T00:55:41.871Z,5.43
2023-04-14T00:58:46.567Z,7.07
2023-04-14T01:01:51.251Z,7.32
2023-04-14T01:04:57.020Z,6.20
2023-04-14T01:08:02.442Z,5.53
2023-04-14T01:11:13.607Z,8.18
2023-04-14T01:14:43.331Z,5.90
2023-04-14T01:17:58.658Z,5.57
2023-04-14T01:21:18.781Z,4.80
2023-04-14T01:24:26.670Z,5.13
2023-04-14T01:27:52.899Z,3.80
2023-04-14T01:31:18.356Z,8.82
2023-04-14T01:34:49.415Z,3.90
2023-04-14T01:38:04.925Z,4.55
2023-04-14T01:41:14.233Z,5.32
2023-04-14T01:44:20.794Z,3.53
2023-04-14T01:47:27.082Z,4.22
2023-04-14T01:50:33.747Z,5.75
2023-04-14T01:53:44.050Z,7.07
2023-04-14T01:56:49.895Z,4.38
2023-04-14T01:59:58.602Z,9.50
2023-04-14T02:03:06.191Z,8.43
2023-04-14T02:06:14.147Z,8.25
2023-04-14T02:09:20.260Z,4.50
2023-04-14T02:12:26.473Z,8.38
2023-04-14T02:15:33.156Z,7.03
2023-04-14T02:18:39.675Z,4.95
2023-04-14T02:21:44.844Z,3.88
2023-04-14T02:24:49.361Z,3.53
2023-04-14T02:28:04.790Z,3.70
2023-04-14T02:31:13.337Z,3.70
2023-04-14T02:34:25.726Z,4.38
2023-04-14T02:37:44.635Z,3.08
2023-04-14T02:40:54.884Z,4.10
2023-04-14T02:44:12.208Z,7.60
2023-04-14T02:47:25.238Z,11.80
2023-04-14T02:50:34.652Z,9.07
2023-04-14T02:53:50.201Z,4.18
2023-04-14T02:57:12.068Z,3.17
2023-04-14T03:00:20.546Z,3.38
2023-04-14T03:03:29.452Z,6.43
2023-04-14T03:06:39.898Z,4.03
2023-04-14T03:09:46.544Z,14.02
2023-04-14T03:12:53.374Z,11.52
2023-04-14T03:16:00.596Z,4.10
2023-04-14T03:19:08.973Z,6.75
2023-04-14T03:22:19.319Z,9.30
2023-04-14T03:25:28.508Z,6.68
2023-04-14T03:28:37.544Z,3.05
2023-04-14T03:31:46.638Z,4.93
2023-04-14T03:34:59.082Z,47.17
2023-04-14T03:38:09.925Z,4.53
2023-04-14T03:41:15.825Z,9.68
2023-04-14T03:44:22.706Z,8.35
2023-04-14T03:47:32.058Z,8.20
2023-04-14T03:50:44.552Z,5.50
2023-04-14T03:53:49.042Z,7.10
2023-04-14T03:56:57.661Z,6.25
2023-04-14T04:00:06.251Z,10.23
2023-04-14T04:03:18.559Z,16.63
2023-04-14T04:06:23.825Z,4.20
2023-04-14T04:09:30.701Z,8.95
2023-04-14T04:12:39.051Z,7.88
2023-04-14T04:15:46.773Z,10.57
2023-04-14T04:18:53.255Z,5.35
2023-04-14T04:22:05.912Z,15.80
2023-04-14T04:25:15.255Z,4.55
2023-04-14T04:28:28.640Z,4.70
2023-04-14T04:31:35.179Z,5.93
2023-04-14T04:34:40.768Z,3.80
2023-04-14T04:37:45.640Z,10.23
2023-04-14T04:40:50.741Z,7.60
2023-04-14T04:44:00.293Z,9.30
2023-04-14T04:47:05.009Z,6.88
2023-04-14T04:50:09.676Z,5.80
2023-04-14T04:53:14.637Z,3.93
2023-04-14T04:56:19.332Z,3.10
2023-04-14T04:59:23.692Z,2.97
2023-04-14T05:02:28.331Z,6.15
2023-04-14T05:05:37.305Z,3.25
2023-04-14T05:08:41.720Z,11.60
2023-04-14T05:11:46.326Z,7.72
2023-04-14T05:14:51.215Z,4.18
2023-04-14T05:17:55.219Z,2.70
2023-04-14T05:21:14.174Z,5.38
2023-04-14T05:24:18.620Z,2.30
2023-04-14T05:27:22.980Z,2.35
2023-04-14T05:30:27.452Z,2.40
2023-04-14T05:33:32.021Z,5.57
2023-04-14T05:36:36.066Z,11.00
2023-04-14T05:39:41.809Z,4.45
2023-04-14T05:42:45.742Z,4.78
2023-04-14T05:45:49.673Z,2.85
2023-04-14T05:48:53.893Z,7.22
2023-04-14T05:51:58.024Z,51.13
2023-04-14T05:55:02.368Z,9.73
2023-04-14T05:58:06.847Z,2.17
2023-04-14T06:01:11.007Z,5.18
2023-04-14T06:04:16.564Z,5.25
2023-04-14T06:07:21.262Z,12.27
2023-04-14T06:10:25.318Z,12.70
2023-04-14T06:13:31.992Z,4.78
2023-04-14T06:16:38.122Z,6.45
2023-04-14T06:19:54.417Z,4.82
2023-04-14T06:23:01.704Z,4.60
2023-04-14T06:26:06.446Z,2.67
2023-04-14T06:29:10.453Z,1.48
2023-04-14T06:32:14.534Z,2.03
2023-04-14T06:35:31.975Z,2.40
2023-04-14T06:38:37.710Z,2.97
2023-04-14T06:41:41.660Z,2.85
2023-04-14T06:44:49.369Z,6.32
2023-04-14T06:47:53.221Z,5.72
2023-04-14T06:50:58.186Z,3.45
2023-04-14T06:54:04.635Z,3.43
2023-04-14T06:57:09.160Z,4.82
2023-04-14T07:00:14.492Z,4.00
2023-04-14T07:03:18.672Z,11.48
2023-04-14T07:06:23.022Z,2.28
2023-04-14T07:09:27.234Z,12.90
2023-04-14T07:12:31.721Z,12.18
2023-04-14T07:15:35.983Z,2.70
2023-04-14T07:18:40.366Z,4.05
2023-04-14T07:21:46.837Z,1.95
2023-04-14T07:24:51.727Z,2.17
2023-04-14T07:28:03.172Z,5.43
2023-04-14T07:31:11.261Z,11.05
2023-04-14T07:34:15.543Z,10.85
2023-04-14T07:37:20.680Z,8.65
2023-04-14T07:40:25.056Z,10.18
2023-04-14T07:43:30.649Z,6.20
2023-04-14T07:46:35.177Z,11.48
2023-04-14T07:49:39.771Z,17.85
2023-04-14T07:52:43.638Z,8.93
2023-04-14T07:55:48.097Z,5.50
2023-04-14T07:58:52.379Z,4.47
2023-04-14T08:01:56.565Z,4.05
2023-04-14T08:05:00.550Z,84.15
2023-04-14T08:08:06.679Z,10.73
2023-04-14T08:11:11.305Z,137.63
2023-04-14T08:14:16.340Z,19.48
2023-04-14T08:17:21.653Z,18.88
2023-04-14T08:20:25.877Z,15.75
2023-04-14T08:23:29.853Z,10.63
2023-04-14T08:27:12.181Z,28.02
2023-04-14T08:30:40.769Z,22.58
2023-04-14T08:34:03.406Z,15.85
2023-04-14T08:37:10.081Z,13.55
2023-04-14T08:40:17.763Z,17.15
2023-04-14T08:43:22.787Z,22.88
2023-04-14T08:46:29.145Z,27.30
2023-04-14T08:49:43.539Z,59.72
2023-04-14T08:52:50.360Z,131.90
2023-04-14T08:55:58.067Z,100.75
2023-04-14T08:59:03.372Z,59.60
2023-04-14T09:02:08.015Z,37.20
2023-04-14T09:05:13.867Z,95.75
2023-04-14T09:08:18.184Z,82.82
2023-04-14T09:11:23.378Z,91.20
2023-04-14T09:14:28.450Z,78.40
2023-04-14T09:17:37.434Z,64.75
2023-04-14T09:20:42.409Z,29.48
2023-04-14T09:23:47.148Z,16.70
2023-04-14T09:26:53.894Z,24.73
2023-04-14T09:30:00.653Z,70.68
2023-04-14T09:33:08.397Z,33.72
2023-04-14T09:36:21.187Z,32.20
2023-04-14T09:39:25.150Z,27.33
2023-04-14T09:42:43.682Z,12.02
2023-04-14T09:45:48.461Z,11.00
2023-04-14T09:48:57.162Z,7.28
2023-04-14T09:52:11.274Z,9.30
2023-04-14T09:55:17.798Z,7.93
2023-04-14T09:58:27.321Z,8.70
2023-04-14T10:01:35.143Z,8.88
2023-04-14T10:04:40.021Z,8.75
2023-04-14T10:07:45.559Z,12.70
2023-04-14T10:10:49.867Z,9.48
2023-04-14T10:13:59.300Z,10.00
2023-04-14T10:17:03.724Z,14.07
2023-04-14T10:20:08.747Z,10.93
2023-04-14T10:23:13.534Z,11.03
2023-04-14T10:26:18.732Z,28.87
2023-04-14T10:29:23.962Z,32.25
2023-04-14T10:32:32.858Z,30.25
2023-04-14T10:35:47.936Z,21.75
2023-04-14T10:39:04.255Z,22.90
2023-04-14T10:42:09.208Z,19.17
2023-04-14T10:45:13.557Z,66.07
2023-04-14T10:48:18.440Z,46.95
2023-04-14T10:51:36.944Z,42.10
2023-04-14T10:55:02.122Z,56.35
2023-04-14T10:58:07.728Z,76.90
2023-04-14T11:01:33.163Z,237.73
2023-04-14T11:05:19.141Z,85.75
2023-04-14T11:08:28.049Z,72.10
2023-04-14T11:11:32.501Z,76.60
2023-04-14T11:14:37.483Z,114.68
2023-04-14T11:17:47.555Z,155.52
2023-04-14T11:20:54.060Z,114.35
2023-04-14T11:24:00.267Z,41.58
2023-04-14T11:27:05.594Z,26.88
2023-04-14T11:30:20.747Z,32.28
2023-04-14T11:33:32.555Z,34.85
2023-04-14T11:36:40.234Z,75.60
2023-04-14T11:39:45.251Z,39.03
2023-04-14T11:42:55.356Z,27.47
2023-04-14T11:46:01.744Z,22.75
2023-04-14T11:49:06.831Z,29.17
2023-04-14T11:52:11.388Z,30.25
2023-04-14T11:55:18.508Z,44.17
2023-04-14T11:58:25.438Z,48.13
2023-04-14T12:01:30.937Z,41.03
2023-04-14T12:04:35.901Z,29.92
2023-04-14T12:07:40.872Z,38.58
2023-04-14T12:10:47.689Z,44.03
2023-04-14T12:13:53.700Z,31.77
2023-04-14T12:16:59.530Z,40.72
2023-04-14T12:20:06.307Z,39.05
2023-04-14T12:23:10.855Z,30.27
2023-04-14T12:26:15.790Z,55.85
2023-04-14T12:29:23.748Z,56.23
2023-04-14T12:32:31.553Z,69.35
2023-04-14T12:35:36.115Z,84.97
2023-04-14T12:38:40.650Z,86.32
2023-04-14T12:41:44.700Z,80.95
2023-04-14T12:45:03.103Z,80.88
2023-04-14T12:48:07.864Z,82.45
2023-04-14T12:51:22.360Z,100.32
2023-04-14T12:54:27.096Z,99.05
2023-04-14T12:57:33.497Z,90.70
2023-04-14T13:00:38.145Z,76.10
2023-04-14T13:03:51.439Z,81.32
2023-04-14T13:06:56.371Z,68.68
2023-04-14T13:10:00.943Z,46.50
2023-04-14T13:13:10.599Z,51.20
2023-04-14T13:16:22.948Z,62.92
2023-04-14T13:19:31.193Z,48.47
2023-04-14T13:22:36.229Z,44.67
2023-04-14T13:25:40.703Z,47.33
2023-04-14T13:28:44.653Z,52.25
2023-04-14T13:31:49.045Z,54.03
2023-04-14T13:34:53.621Z,57.75
2023-04-14T13:37:59.969Z,67.85
2023-04-14T13:41:07.381Z,36.53
2023-04-14T13:44:16.357Z,41.08
2023-04-14T13:47:29.422Z,45.03
2023-04-14T13:50:40.421Z,34.42
2023-04-14T13:53:51.573Z,34.15
2023-04-14T13:57:02.864Z,33.40
2023-04-14T14:00:11.282Z,29.15
2023-04-14T14:03:18.253Z,41.05
2023-04-14T14:06:24.696Z,69.10
2023-04-14T14:09:30.432Z,66.68
2023-04-14T14:12:34.943Z,125.70
2023-04-14T14:15:40.127Z,106.85
2023-04-14T14:18:45.966Z,87.90
2023-04-14T14:25:06.899Z,59.58
2023-04-14T14:28:19.979Z,73.97
2023-04-14T14:31:24.722Z,89.63
2023-04-14T14:34:29.218Z,82.18
2023-04-14T14:37:33.710Z,68.13
2023-04-14T14:40:38.182Z,50.72
2023-04-14T14:43:42.616Z,30.80
2023-04-14T14:46:48.050Z,9.35
2023-04-14T14:49:59.586Z,35.45
2023-04-14T14:53:04.863Z,30.00
2023-04-14T14:56:09.384Z,11.60
2023-04-14T14:59:13.766Z,11.02
2023-04-14T15:02:18.492Z,7.22
2023-04-14T15:05:23.052Z,19.37
2023-04-14T15:08:27.422Z,19.50
2023-04-14T15:11:31.695Z,18.67
2023-04-14T15:14:36.478Z,13.25
2023-04-14T15:17:41.108Z,13.83
2023-04-14T15:20:45.680Z,12.48
2023-04-14T15:23:50.585Z,31.65
2023-04-14T15:26:54.962Z,30.67
2023-04-14T15:29:59.475Z,30.55
2023-04-14T15:33:04.047Z,18.30
2023-04-14T15:36:08.746Z,27.60
2023-04-14T15:39:13.465Z,19.15
2023-04-14T15:42:17.923Z,13.80
2023-04-14T15:45:22.505Z,10.07
2023-04-14T15:48:27.307Z,7.13
2023-04-14T15:51:31.741Z,6.55
2023-04-14T15:54:36.680Z,4.05
2023-04-14T15:57:41.594Z,6.07
2023-04-14T16:00:46.688Z,6.78
2023-04-14T16:03:52.616Z,5.75
2023-04-14T16:06:57.247Z,6.40
2023-04-14T16:10:02.249Z,5.78
2023-04-14T16:13:07.180Z,6.38
2023-04-14T16:16:13.757Z,5.57
2023-04-14T16:19:18.577Z,5.03
2023-04-14T16:22:23.886Z,4.38
2023-04-14T16:25:28.692Z,7.45
2023-04-14T16:28:33.174Z,6.70
2023-04-14T16:31:37.965Z,4.78
2023-04-14T16:34:42.122Z,5.38
2023-04-14T16:37:46.402Z,4.43
2023-04-14T16:40:58.308Z,7.28
2023-04-14T16:44:02.830Z,6.35
2023-04-14T16:47:07.658Z,5.68
2023-04-14T16:50:12.554Z,4.03
2023-04-14T16:53:17.620Z,4.57
2023-04-14T16:56:22.292Z,3.10
2023-04-14T16:59:26.910Z,3.53
2023-04-14T17:02:31.521Z,5.22
2023-04-14T17:05:36.146Z,3.73
2023-04-14T17:08:40.812Z,4.93
2023-04-14T17:11:45.446Z,5.45
2023-04-14T17:14:49.817Z,4.85
2023-04-14T17:17:54.279Z,3.50
2023-04-14T17:20:59.272Z,3.45
2023-04-14T17:24:05.564Z,4.50
2023-04-14T17:27:10.009Z,4.18
2023-04-14T17:30:14.900Z,3.85
2023-04-14T17:33:20.733Z,5.47
2023-04-14T17:36:25.054Z,5.63
2023-04-14T17:39:29.700Z,5.25
2023-04-14T17:42:35.111Z,10.77
2023-04-14T17:45:43.031Z,58.33
2023-04-14T17:48:47.742Z,11.43
2023-04-14T17:51:52.428Z,13.67
2023-04-14T17:54:56.774Z,223.02
2023-04-14T17:58:01.750Z,75.95
2023-04-14T18:01:06.594Z,134.90
2023-04-14T18:04:11.157Z,236.73
2023-04-14T18:07:15.630Z,200.68
2023-04-14T18:10:20.416Z,98.78
2023-04-14T18:13:24.704Z,46.95
2023-04-14T18:16:29.433Z,104.05
2023-04-14T18:19:36.623Z,20.70
2023-04-14T18:22:41.189Z,8.23
2023-04-14T18:28:53.191Z,31.95
2023-04-14T18:31:59.157Z,14.38
2023-04-14T18:35:03.050Z,9.13
2023-04-14T18:38:08.328Z,55.35
2023-04-14T18:41:13.154Z,182.98
2023-04-14T18:44:17.914Z,99.80
2023-04-14T18:47:23.102Z,91.72
2023-04-14T18:50:28.073Z,12.07
2023-04-14T18:53:32.733Z,11.60
2023-04-14T18:56:37.713Z,27.00
2023-04-14T18:59:42.789Z,21.73
2023-04-14T19:02:47.764Z,29.33
2023-04-14T19:05:52.846Z,44.58
2023-04-14T19:09:02.022Z,19.73
2023-04-14T19:12:12.815Z,16.67
2023-04-14T19:15:29.607Z,13.52
2023-04-14T19:18:33.944Z,16.02
2023-04-14T19:21:38.494Z,15.52
2023-04-14T19:24:43.095Z,15.10
2023-04-14T19:27:47.663Z,23.65
2023-04-14T19:30:51.823Z,17.83
2023-04-14T19:33:57.121Z,19.20
2023-04-14T19:37:04.932Z,16.85
2023-04-14T19:40:11.814Z,14.85
2023-04-14T19:43:19.643Z,14.45
2023-04-14T19:46:24.300Z,12.35
2023-04-14T19:49:29.154Z,13.80
2023-04-14T19:52:33.691Z,12.17
2023-04-14T19:55:38.108Z,11.98
2023-04-14T19:58:42.581Z,11.40
2023-04-14T20:01:48.232Z,6.50
2023-04-14T20:07:56.985Z,13.75
2023-04-14T20:11:01.312Z,9.63
2023-04-14T20:14:06.163Z,8.30
2023-04-14T20:17:10.691Z,6.60
2023-04-14T20:20:17.283Z,16.80
2023-04-14T20:23:22.570Z,17.15
2023-04-14T20:26:27.048Z,19.38
2023-04-14T20:29:31.495Z,16.75
2023-04-14T20:32:36.466Z,14.90
2023-04-14T20:35:41.342Z,13.15
2023-04-14T20:38:45.770Z,14.30
2023-04-14T20:41:50.275Z,9.38
2023-04-14T20:44:54.514Z,8.30
2023-04-14T20:47:59.748Z,12.43
2023-04-14T20:51:04.397Z,12.13
2023-04-14T20:54:08.595Z,8.18
2023-04-14T20:57:13.132Z,8.93
2023-04-14T21:00:19.602Z,9.43
2023-04-14T21:03:24.651Z,8.35
2023-04-14T21:06:30.068Z,9.97
2023-04-14T21:09:35.887Z,8.63
2023-04-14T21:13:54.281Z,8.40
2023-04-14T21:16:04.972Z,6.20
2023-04-14T21:19:14.293Z,8.32
2023-04-14T21:22:18.764Z,12.47
2023-04-14T21:25:24.085Z,8.65
2023-04-14T21:28:28.699Z,10.30
2023-04-14T21:31:33.905Z,4.55
2023-04-14T21:34:38.754Z,6.18
2023-04-14T21:37:43.615Z,18.17
2023-04-14T21:40:47.695Z,9.23
2023-04-14T21:43:52.366Z,6.80
2023-04-14T21:46:57.738Z,7.57
2023-04-14T21:50:02.182Z,8.10
2023-04-14T21:53:07.403Z,7.78
2023-04-14T21:56:13.771Z,8.70
2023-04-14T21:59:18.519Z,5.75
2023-04-14T22:02:23.654Z,10.63
2023-04-14T22:05:28.274Z,11.65
2023-04-14T22:08:32.821Z,8.98
2023-04-14T22:11:38.479Z,5.22
2023-04-14T22:17:54.387Z,10.35
2023-04-14T22:20:59.525Z,11.55
2023-04-14T22:24:03.967Z,6.63
2023-04-14T22:27:10.715Z,8.85
2023-04-14T22:30:15.115Z,5.63
2023-04-14T22:33:19.664Z,3.92
2023-04-14T22:36:24.133Z,4.75
2023-04-14T22:39:28.877Z,3.70
2023-04-14T22:42:32.728Z,6.88
2023-04-14T22:45:38.680Z,9.00
2023-04-14T22:48:43.338Z,4.88
2023-04-14T22:51:47.999Z,3.97
2023-04-14T22:54:52.538Z,4.53
2023-04-14T22:57:56.703Z,7.72
2023-04-14T23:01:09.125Z,5.47
2023-04-14T23:04:20.008Z,7.68
2023-04-14T23:07:24.310Z,11.75
2023-04-14T23:10:29.360Z,17.75
2023-04-14T23:13:34.328Z,6.50
2023-04-14T23:16:38.937Z,4.43
2023-04-14T23:19:43.433Z,5.43
2023-04-14T23:22:47.540Z,5.22
2023-04-14T23:25:52.200Z,8.05
2023-04-14T23:28:56.749Z,13.30
2023-04-14T23:32:00.785Z,3.92
2023-04-14T23:35:05.167Z,6.15
2023-04-14T23:38:09.863Z,8.20
2023-04-14T23:41:14.318Z,5.32
2023-04-14T23:44:18.161Z,8.27
2023-04-14T23:47:23.643Z,4.60
2023-04-14T23:51:01.178Z,3.97
2023-04-14T23:53:52.942Z,8.88
2023-04-14T23:56:57.648Z,8.73
